Time;durP1;ratioP1;P1;durP2;ratioP2;P2;SDS_P1;SDS_P2;PMS_P1;PMS_P2;Temp;Humidity;BMP_temperature;BMP_pressure;BME280_temperature;BME280_humidity;BME280_pressure;Samples;Min_cycle;Max_cycle;Signal;HPM_P1;HPM_P2
2023/05/08 00:02:20;;;;;;;6.60;4.62;;;;;;;10.42;100.00;100818.19;5547816;32;33883;-68
2023/05/08 00:05:23;;;;;;;6.10;3.95;;;;;;;10.61;100.00;100817.97;5547541;32;34811;-69
2023/05/08 00:08:26;;;;;;;5.50;3.85;;;;;;;10.63;100.00;100818.66;5547709;32;34583;-68
2023/05/08 00:11:29;;;;;;;8.70;4.47;;;;;;;10.50;100.00;100820.91;5547608;32;34883;-68
2023/05/08 00:14:31;;;;;;;5.75;3.90;;;;;;;10.52;100.00;100818.91;5547515;32;33815;-68
2023/05/08 00:17:34;;;;;;;6.37;4.18;;;;;;;10.57;100.00;100813.13;5547610;32;33588;-68
2023/05/08 00:20:37;;;;;;;5.55;4.07;;;;;;;10.50;100.00;100812.12;5547346;32;33765;-68
2023/05/08 00:23:40;;;;;;;5.20;4.10;;;;;;;10.48;100.00;100820.22;5546250;32;34560;-68
2023/05/08 00:26:44;;;;;;;4.70;3.67;;;;;;;10.45;100.00;100829.34;5545407;32;33558;-68
2023/05/08 00:29:47;;;;;;;5.80;4.30;;;;;;;10.44;100.00;100824.19;5546257;32;33985;-68
2023/05/08 00:32:50;;;;;;;9.40;3.95;;;;;;;10.27;100.00;100825.03;5546337;32;34664;-68
2023/05/08 00:36:03;;;;;;;5.35;4.28;;;;;;;10.38;100.00;100822.16;5546596;32;33799;-68
2023/05/08 00:39:06;;;;;;;4.87;4.05;;;;;;;10.23;100.00;100821.03;5547020;32;33705;-68
2023/05/08 00:42:09;;;;;;;7.55;4.05;;;;;;;10.13;100.00;100825.56;5547235;32;33803;-68
2023/05/08 00:45:12;;;;;;;7.90;3.70;;;;;;;10.13;100.00;100828.22;5547110;32;33687;-68
2023/05/08 00:48:15;;;;;;;6.70;3.92;;;;;;;10.12;100.00;100816.78;5546910;32;33775;-68
2023/05/08 00:51:18;;;;;;;5.62;4.35;;;;;;;10.10;100.00;100824.06;5547689;32;33798;-68
2023/05/08 00:54:22;;;;;;;5.68;4.50;;;;;;;10.04;100.00;100814.91;5549346;32;34545;-68
2023/05/08 00:57:24;;;;;;;8.00;4.40;;;;;;;9.88;100.00;100820.06;5549325;32;34745;-68
2023/05/08 01:00:28;;;;;;;9.63;3.90;;;;;;;9.90;100.00;100820.75;5549284;32;33824;-68
2023/05/08 01:03:32;;;;;;;7.65;4.37;;;;;;;9.73;100.00;100834.03;5549297;32;34315;-68
2023/05/08 01:06:36;;;;;;;6.32;4.00;;;;;;;9.63;100.00;100834.09;5549234;32;34219;-68
2023/05/08 01:09:38;;;;;;;7.53;4.35;;;;;;;9.46;100.00;100826.94;5549116;32;33822;-68
2023/05/08 01:13:14;;;;;;;5.28;4.43;;;;;;;9.37;100.00;100839.28;5548336;32;34476;-68
2023/05/08 01:16:38;;;;;;;8.25;4.82;;;;;;;9.33;100.00;100840.56;5549213;32;34317;-68
2023/05/08 01:20:20;;;;;;;9.52;5.00;;;;;;;9.35;100.00;100843.03;5549179;32;34624;-68
2023/05/08 01:23:50;;;;;;;6.87;4.75;;;;;;;9.26;100.00;100852.72;5514916;32;33818;-68
2023/05/08 01:27:02;;;;;;;7.70;5.20;;;;;;;9.24;100.00;100857.34;5548997;32;34831;-68
2023/05/08 01:30:43;;;;;;;6.10;4.95;;;;;;;9.29;100.00;100860.37;5548528;32;33807;-68
2023/05/08 01:33:54;;;;;;;10.35;4.82;;;;;;;9.37;100.00;100865.75;5548200;32;33941;-68
2023/05/08 01:37:02;;;;;;;6.95;5.10;;;;;;;9.38;100.00;100863.94;5549024;32;33790;-68
2023/05/08 01:40:11;;;;;;;7.20;4.72;;;;;;;9.45;100.00;100860.53;5549279;32;33928;-68
2023/05/08 01:43:23;;;;;;;6.90;4.60;;;;;;;9.51;100.00;100859.94;5549027;32;34774;-68
2023/05/08 01:46:30;;;;;;;7.18;4.62;;;;;;;9.46;100.00;100864.88;5548988;32;33554;-68
2023/05/08 01:49:39;;;;;;;8.15;4.37;;;;;;;9.52;100.00;100864.28;5548810;32;34487;-68
2023/05/08 01:52:52;;;;;;;6.22;4.40;;;;;;;9.60;100.00;100866.16;5547921;32;33903;-68
2023/05/08 01:56:02;;;;;;;6.35;4.57;;;;;;;9.56;100.00;100864.81;5548931;32;33641;-68
2023/05/08 01:59:06;;;;;;;9.00;4.40;;;;;;;9.55;100.00;100863.97;5548900;32;33981;-68
2023/05/08 02:02:12;;;;;;;6.68;4.70;;;;;;;9.54;100.00;100862.28;5548431;32;33854;-68
2023/05/08 02:05:17;;;;;;;5.72;4.10;;;;;;;9.57;100.00;100872.59;5548831;32;34064;-68
2023/05/08 02:08:23;;;;;;;7.82;4.10;;;;;;;9.59;100.00;100875.09;5548777;32;33771;-68
2023/05/08 02:11:28;;;;;;;9.30;4.37;;;;;;;9.64;100.00;100874.63;5548659;32;34254;-68
2023/05/08 02:14:31;;;;;;;7.93;4.20;;;;;;;9.70;100.00;100880.19;5548698;32;33796;-68
2023/05/08 02:17:38;;;;;;;6.85;4.10;;;;;;;9.78;100.00;100880.25;5548800;32;33659;-67
2023/05/08 02:20:41;;;;;;;5.65;4.53;;;;;;;9.89;100.00;100880.03;5548666;32;33761;-67
2023/05/08 02:23:45;;;;;;;8.13;4.57;;;;;;;9.92;100.00;100885.03;5548106;32;33904;-67
2023/05/08 02:26:49;;;;;;;5.75;4.40;;;;;;;9.82;100.00;100881.66;5548622;32;35143;-68
2023/05/08 02:29:54;;;;;;;8.13;5.00;;;;;;;9.74;100.00;100876.25;5547479;32;33956;-67
2023/05/08 02:32:58;;;;;;;6.32;4.57;;;;;;;9.75;100.00;100882.38;5548544;32;33842;-67
2023/05/08 02:36:03;;;;;;;12.05;4.75;;;;;;;9.69;100.00;100882.97;5548466;32;34882;-68
2023/05/08 02:39:10;;;;;;;6.53;4.95;;;;;;;9.72;100.00;100878.22;5548336;32;33767;-68
2023/05/08 02:42:14;;;;;;;6.75;4.70;;;;;;;9.79;100.00;100886.38;5548127;32;34116;-67
2023/05/08 02:45:17;;;;;;;6.57;4.20;;;;;;;9.78;100.00;100879.44;5548499;32;33681;-68
2023/05/08 02:48:32;;;;;;;7.15;4.28;;;;;;;9.64;100.00;100886.06;5541755;32;33746;-68
2023/05/08 02:51:47;;;;;;;7.10;4.62;;;;;;;9.55;100.00;100882.50;5548097;32;34802;-67
2023/05/08 02:55:25;;;;;;;9.25;4.37;;;;;;;9.51;100.00;100889.09;5548647;32;33698;-67
2023/05/08 02:58:48;;;;;;;6.18;4.68;;;;;;;9.43;100.00;100896.94;5547575;32;33642;-68
2023/05/08 03:02:05;;;;;;;7.25;4.60;;;;;;;9.40;100.00;100893.75;5547402;32;33782;-68
2023/05/08 03:05:15;;;;;;;10.25;4.50;;;;;;;9.32;100.00;100896.31;5548517;32;34474;-68
2023/05/08 03:08:24;;;;;;;5.95;5.07;;;;;;;9.32;100.00;100898.94;5548351;32;33750;-68
2023/05/08 03:11:37;;;;;;;8.02;4.75;;;;;;;9.28;100.00;100898.41;5548182;32;35155;-68
2023/05/08 03:14:51;;;;;;;8.98;4.45;;;;;;;9.31;100.00;100897.28;5546969;32;33973;-68
2023/05/08 03:17:59;;;;;;;6.53;4.28;;;;;;;9.31;100.00;100897.28;5548070;32;33735;-68
2023/05/08 03:21:05;;;;;;;8.85;4.68;;;;;;;9.39;100.00;100898.19;5548082;32;33904;-68
2023/05/08 03:24:08;;;;;;;5.60;4.28;;;;;;;9.48;100.00;100894.69;5540056;32;34303;-67
2023/05/08 03:27:13;;;;;;;7.00;4.20;;;;;;;9.53;100.00;100894.25;5531443;32;33719;-67
2023/05/08 03:30:17;;;;;;;7.87;4.40;;;;;;;9.59;100.00;100898.91;5528437;32;33845;-67
2023/05/08 03:33:22;;;;;;;5.00;4.20;;;;;;;9.73;100.00;100897.59;5528687;32;34620;-68
2023/05/08 03:36:25;;;;;;;11.48;4.97;;;;;;;9.70;100.00;100895.25;5528523;32;34549;-67
2023/05/08 03:39:29;;;;;;;8.82;4.05;;;;;;;9.68;100.00;100900.72;5528544;32;34566;-68
2023/05/08 03:42:32;;;;;;;5.43;3.67;;;;;;;9.66;100.00;100900.00;5528460;32;34125;-68
2023/05/08 03:45:37;;;;;;;6.15;3.50;;;;;;;9.66;100.00;100907.97;5544222;32;35124;-67
2023/05/08 03:48:40;;;;;;;4.97;3.00;;;;;;;9.78;100.00;100903.28;5545310;32;33483;-69
2023/05/08 03:51:44;;;;;;;3.92;2.87;;;;;;;9.81;100.00;100910.94;5542055;32;33241;-69
2023/05/08 03:54:49;;;;;;;4.32;2.80;;;;;;;9.92;100.00;100916.03;5548017;32;33949;-69
2023/05/08 03:58:10;;;;;;;4.30;2.65;;;;;;;9.94;100.00;100911.37;5530072;32;33111;-69
2023/05/08 04:01:26;;;;;;;9.95;2.65;;;;;;;9.98;100.00;100907.44;5528606;32;33858;-69
2023/05/08 04:04:41;;;;;;;7.28;2.70;;;;;;;10.06;100.00;100914.66;5527786;32;33660;-68
2023/05/08 04:08:28;;;;;;;4.62;2.60;;;;;;;10.17;100.00;100915.28;5528335;32;33822;-69
2023/05/08 04:12:08;;;;;;;3.67;2.33;;;;;;;10.26;100.00;100921.50;5486636;32;34346;-68
2023/05/08 04:15:21;;;;;;;4.68;2.60;;;;;;;10.27;100.00;100926.62;5547781;32;34411;-69
2023/05/08 04:18:29;;;;;;;4.62;2.58;;;;;;;10.13;100.00;100923.66;5546886;32;34115;-69
2023/05/08 04:21:35;;;;;;;4.12;2.83;;;;;;;10.16;100.00;100932.19;5546747;32;34514;-68
2023/05/08 04:24:43;;;;;;;5.87;2.50;;;;;;;10.18;100.00;100938.16;5547005;32;34896;-69
2023/05/08 04:27:47;;;;;;;3.62;2.20;;;;;;;10.24;100.00;100937.56;5547332;32;33584;-69
2023/05/08 04:30:50;;;;;;;2.78;1.90;;;;;;;10.29;99.03;100947.72;5547060;32;33744;-66
2023/05/08 04:33:54;;;;;;;3.67;1.83;;;;;;;10.25;97.50;100952.50;5547260;32;34184;-68
2023/05/08 04:36:57;;;;;;;2.55;1.77;;;;;;;10.34;92.67;100954.22;5547183;32;33792;-67
2023/05/08 04:40:00;;;;;;;3.87;1.90;;;;;;;10.32;93.41;100953.53;5547032;32;33701;-67
2023/05/08 04:43:04;;;;;;;3.08;1.83;;;;;;;10.32;93.63;100968.63;5546851;32;34434;-67
2023/05/08 04:46:07;;;;;;;1.80;1.60;;;;;;;10.30;92.52;100966.13;5546168;32;34451;-68
2023/05/08 04:49:10;;;;;;;3.97;2.10;;;;;;;10.28;92.32;100969.91;5546643;32;34546;-68
2023/05/08 04:52:13;;;;;;;10.52;2.30;;;;;;;10.29;93.17;100983.03;5546837;32;34054;-67
2023/05/08 04:55:25;;;;;;;9.60;2.40;;;;;;;10.30;94.42;100976.75;5546607;32;34626;-67
2023/05/08 04:58:28;;;;;;;2.47;1.83;;;;;;;10.44;95.02;100984.16;5546849;32;33887;-67
2023/05/08 05:01:31;;;;;;;3.75;1.87;;;;;;;10.52;92.85;100982.56;5545809;32;33916;-67
2023/05/08 05:04:35;;;;;;;7.87;2.03;;;;;;;10.45;93.73;100990.31;5545691;32;33695;-68
2023/05/08 05:07:38;;;;;;;3.85;1.62;;;;;;;10.42;94.59;100985.28;5546369;32;33829;-67
2023/05/08 05:10:41;;;;;;;6.43;1.87;;;;;;;10.41;92.65;100992.41;5546268;32;34640;-68
2023/05/08 05:13:44;;;;;;;3.62;1.90;;;;;;;10.48;89.50;100991.81;5542461;32;34019;-67
2023/05/08 05:16:47;;;;;;;1.95;1.58;;;;;;;10.64;88.37;100984.84;5527230;32;33882;-68
2023/05/08 05:19:51;;;;;;;2.42;1.50;;;;;;;10.54;86.34;100997.34;5537943;32;34244;-68
2023/05/08 05:22:56;;;;;;;2.92;1.40;;;;;;;10.64;87.46;101002.56;5546307;32;33924;-67
2023/05/08 05:26:00;;;;;;;3.10;1.77;;;;;;;10.58;86.67;101000.53;5545915;32;34019;-68
2023/05/08 05:29:04;;;;;;;2.40;1.37;;;;;;;10.63;86.61;101001.75;5535717;32;33612;-68
2023/05/08 05:32:09;;;;;;;2.65;1.70;;;;;;;10.64;84.59;101003.41;5545490;32;33646;-68
2023/05/08 05:35:12;;;;;;;3.08;1.48;;;;;;;10.70;86.41;101012.56;5544077;32;34542;-67
2023/05/08 05:38:15;;;;;;;3.35;1.50;;;;;;;10.87;82.50;101006.41;5533884;32;33617;-67
2023/05/08 05:41:18;;;;;;;2.12;1.35;;;;;;;10.51;83.29;101005.59;5529107;32;35441;-67
2023/05/08 05:44:21;;;;;;;2.42;1.40;;;;;;;10.63;84.32;101022.12;5529172;32;33601;-69
2023/05/08 05:47:24;;;;;;;2.40;1.50;;;;;;;10.68;82.34;101014.53;5548348;32;34226;-68
2023/05/08 05:50:27;;;;;;;4.60;1.73;;;;;;;10.77;81.92;101019.78;5536598;32;34234;-67
2023/05/08 05:53:31;;;;;;;2.78;1.60;;;;;;;10.77;81.39;101026.87;5528222;32;33649;-67
2023/05/08 05:56:34;;;;;;;1.58;1.40;;;;;;;10.83;81.74;101023.63;5528819;32;34500;-68
2023/05/08 05:59:37;;;;;;;2.37;1.40;;;;;;;11.17;79.87;101029.87;5528912;32;34520;-67
2023/05/08 06:02:42;;;;;;;5.22;1.40;;;;;;;11.39;77.90;101028.50;5533547;32;35087;-67
2023/05/08 06:05:46;;;;;;;2.30;1.62;;;;;;;11.45;75.57;101032.34;5535937;32;33832;-67
2023/05/08 06:08:49;;;;;;;1.75;1.20;;;;;;;11.36;75.79;101035.94;5532129;32;33826;-68
2023/05/08 06:11:52;;;;;;;3.97;1.50;;;;;;;11.03;76.28;101027.78;5535333;32;34873;-67
2023/05/08 06:14:55;;;;;;;1.45;1.17;;;;;;;10.97;77.93;101027.56;5538890;32;33577;-68
2023/05/08 06:17:58;;;;;;;5.20;1.40;;;;;;;11.37;74.87;101021.69;5548279;32;34554;-67
2023/05/08 06:21:00;;;;;;;6.43;1.37;;;;;;;11.24;75.81;101033.53;5529811;32;34061;-67
2023/05/08 06:24:05;;;;;;;7.93;1.73;;;;;;;11.21;76.25;101019.75;5540457;32;33504;-68
2023/05/08 06:27:08;;;;;;;1.73;1.37;;;;;;;11.33;76.57;101027.28;5528820;32;33721;-67
2023/05/08 06:30:11;;;;;;;3.37;1.30;;;;;;;11.73;73.66;101024.06;5528712;32;33553;-68
2023/05/08 06:33:13;;;;;;;1.92;1.17;;;;;;;11.64;73.87;101029.47;5528647;32;35194;-67
2023/05/08 06:36:16;;;;;;;2.35;1.20;;;;;;;11.36;75.42;101028.81;5528939;32;33696;-66
2023/05/08 06:39:19;;;;;;;3.62;1.48;;;;;;;11.87;74.71;101027.09;5527644;32;33715;-67
2023/05/08 06:42:22;;;;;;;5.37;1.37;;;;;;;12.03;73.24;101027.16;5528879;32;33887;-67
2023/05/08 06:45:25;;;;;;;2.45;1.50;;;;;;;11.73;73.58;101047.16;5528764;32;34546;-67
2023/05/08 06:48:28;;;;;;;5.80;1.52;;;;;;;11.72;73.62;101042.78;5528258;32;34495;-65
2023/05/08 06:51:31;;;;;;;2.60;1.37;;;;;;;12.14;73.41;101042.84;5537671;32;33976;-67
2023/05/08 06:54:34;;;;;;;2.78;1.20;;;;;;;12.24;70.70;101032.88;5545173;32;33936;-66
2023/05/08 06:57:37;;;;;;;6.95;1.58;;;;;;;13.00;67.57;101049.44;5538830;32;33997;-67
2023/05/08 07:00:41;;;;;;;2.67;1.30;;;;;;;13.36;66.33;101041.91;5529901;32;33566;-67
2023/05/08 07:03:44;;;;;;;1.77;1.37;;;;;;;13.47;63.97;101044.22;5528454;32;34075;-68
2023/05/08 07:06:47;;;;;;;8.10;1.48;;;;;;;12.88;65.76;101053.41;5527708;32;33891;-67
2023/05/08 07:09:49;;;;;;;2.00;1.10;;;;;;;12.69;67.39;101050.25;5528548;32;33801;-67
2023/05/08 07:12:53;;;;;;;1.60;1.17;;;;;;;13.22;66.82;101055.91;5538267;32;33629;-66
2023/05/08 07:15:56;;;;;;;5.47;1.10;;;;;;;13.63;63.49;101050.53;5545046;32;33812;-67
2023/05/08 07:18:59;;;;;;;7.87;1.40;;;;;;;14.45;58.86;101055.34;5547920;32;33816;-66
2023/05/08 07:22:02;;;;;;;2.45;1.20;;;;;;;13.54;61.59;101040.87;5547628;32;34642;-67
2023/05/08 07:25:05;;;;;;;4.18;1.10;;;;;;;13.96;59.69;101056.56;5538952;32;33610;-67
2023/05/08 07:28:08;;;;;;;4.12;1.05;;;;;;;14.64;57.13;101048.72;5545654;32;33655;-66
2023/05/08 07:31:11;;;;;;;1.90;1.00;;;;;;;15.07;55.37;101055.22;5547661;32;33930;-66
2023/05/08 07:34:14;;;;;;;7.20;1.12;;;;;;;15.96;53.63;101051.63;5547678;32;33920;-67
2023/05/08 07:37:16;;;;;;;3.45;0.98;;;;;;;16.31;52.24;101050.84;5547654;32;33833;-65
2023/05/08 07:40:19;;;;;;;5.43;1.08;;;;;;;14.93;53.89;101056.84;5547620;32;33997;-66
2023/05/08 07:43:23;;;;;;;3.05;1.00;;;;;;;15.28;52.82;101055.34;5547560;32;34386;-67
2023/05/08 07:46:25;;;;;;;12.43;1.37;;;;;;;16.48;50.85;101054.94;5547312;32;33785;-67
2023/05/08 07:49:29;;;;;;;4.60;1.00;;;;;;;16.21;50.29;101057.50;5543469;32;118845;-67
2023/05/08 07:52:31;;;;;;;1.10;0.98;;;;;;;14.94;53.47;101058.50;5529682;32;34533;-67
2023/05/08 07:55:35;;;;;;;4.90;1.10;;;;;;;14.86;54.06;101063.91;5539809;32;34789;-68
2023/05/08 07:58:37;;;;;;;2.33;0.90;;;;;;;16.66;50.29;101062.56;5546698;32;33909;-66
2023/05/08 08:01:45;;;;;;;6.60;1.10;;;;;;;17.80;48.02;101059.56;5546010;32;34025;-67
2023/05/08 08:04:48;;;;;;;1.90;0.93;;;;;;;17.85;46.96;101056.28;5547208;32;33837;-67
2023/05/08 08:07:51;;;;;;;4.18;1.08;;;;;;;16.95;48.28;101056.22;5533189;32;34837;-66
2023/05/08 08:10:54;;;;;;;7.70;1.50;;;;;;;17.43;48.22;101056.44;5528229;32;33845;-66
2023/05/08 08:13:57;;;;;;;2.33;0.88;;;;;;;17.09;47.98;101054.53;5528826;32;33878;-68
2023/05/08 08:17:00;;;;;;;0.98;0.80;;;;;;;18.99;44.30;101054.56;5535491;32;34052;-67
2023/05/08 08:20:03;;;;;;;1.12;0.82;;;;;;;19.92;40.96;101050.75;5534638;32;33606;-69
2023/05/08 08:23:06;;;;;;;4.28;1.12;;;;;;;20.67;39.08;101049.97;5527660;32;34808;-68
2023/05/08 08:26:09;;;;;;;2.47;0.90;;;;;;;21.52;39.41;101050.34;5527137;32;33975;-68
2023/05/08 08:29:12;;;;;;;4.32;0.98;;;;;;;21.73;37.14;101059.91;5527261;32;33785;-67
2023/05/08 08:32:14;;;;;;;1.27;0.62;;;;;;;20.63;38.63;101043.34;5530412;32;34388;-67
2023/05/08 08:35:18;;;;;;;3.90;1.00;;;;;;;20.73;38.11;101049.09;5538549;32;33862;-68
2023/05/08 08:38:20;;;;;;;3.25;0.65;;;;;;;20.56;39.13;101047.16;5539056;32;34857;-68
2023/05/08 08:41:23;;;;;;;7.07;1.08;;;;;;;20.92;37.84;101047.31;5527097;32;33653;-67
2023/05/08 08:44:26;;;;;;;2.50;0.80;;;;;;;20.55;38.60;101040.09;5538879;32;33901;-68
2023/05/08 08:47:39;;;;;;;3.15;0.80;;;;;;;21.17;37.83;101047.34;5544745;32;35434;-68
2023/05/08 08:50:49;;;;;;;2.05;0.60;;;;;;;21.72;34.97;101045.56;5539538;32;33866;-68
2023/05/08 08:54:10;;;;;;;0.98;0.60;;;;;;;21.13;36.52;101044.25;5526819;32;34031;-69
2023/05/08 08:57:18;;;;;;;2.95;0.70;;;;;;;21.56;35.06;101044.28;5525007;32;34460;-68
2023/05/08 09:00:25;;;;;;;2.55;0.60;;;;;;;19.42;38.20;101044.19;5531006;32;33907;-67
2023/05/08 09:03:29;;;;;;;1.85;0.70;;;;;;;18.20;39.80;101049.03;5527611;32;34515;-66
2023/05/08 09:06:37;;;;;;;2.25;0.60;;;;;;;19.85;37.40;101039.97;5542708;32;33980;-67
2023/05/08 09:09:43;;;;;;;0.50;0.50;;;;;;;19.74;36.91;101024.50;5541914;32;34635;-67
2023/05/08 09:12:47;;;;;;;4.30;0.52;;;;;;;22.36;33.29;101028.78;5543457;32;34585;-68
2023/05/08 09:15:49;;;;;;;2.97;0.50;;;;;;;21.69;33.79;101029.78;5528664;32;33894;-67
2023/05/08 09:18:53;;;;;;;2.37;0.50;;;;;;;20.63;35.59;101018.25;5542844;32;34032;-67
2023/05/08 09:21:59;;;;;;;1.95;0.65;;;;;;;23.29;32.74;101028.97;5548164;32;34528;-69
2023/05/08 09:25:03;;;;;;;3.85;0.50;;;;;;;24.89;29.94;101025.47;5541070;32;34043;-68
2023/05/08 09:28:25;;;;;;;0.90;0.32;;;;;;;23.35;31.49;101028.03;5534724;32;34145;-71
2023/05/08 09:31:39;;;;;;;0.88;0.52;;;;;;;25.59;27.67;101031.19;5534560;32;33805;-68
2023/05/08 09:34:51;;;;;;;4.32;0.50;;;;;;;23.85;29.75;101024.84;5541067;32;34029;-69
2023/05/08 09:37:55;;;;;;;3.00;0.52;;;;;;;24.81;29.08;101025.84;5548225;32;33840;-67
2023/05/08 09:41:13;;;;;;;7.75;0.88;;;;;;;23.00;31.44;101027.19;5546674;32;35854;-69
2023/05/08 09:44:16;;;;;;;0.88;0.47;;;;;;;22.99;31.80;101032.84;5548926;32;33875;-69
2023/05/08 09:47:21;;;;;;;2.53;0.60;;;;;;;23.15;30.88;101027.56;5540044;32;34335;-66
2023/05/08 09:50:25;;;;;;;7.50;0.82;;;;;;;23.77;30.00;101019.75;5536949;32;32702;-66
2023/05/08 09:53:31;;;;;;;0.98;0.50;;;;;;;24.96;29.16;101020.72;5533322;32;33891;-70
2023/05/08 09:56:38;;;;;;;1.30;0.40;;;;;;;24.50;28.86;101021.78;5523641;32;34208;-67
2023/05/08 09:59:41;;;;;;;2.00;0.50;;;;;;;24.37;30.09;101016.66;5530318;32;33917;-69
2023/05/08 10:02:59;;;;;;;1.92;0.60;;;;;;;26.25;27.39;101021.97;5544843;32;35154;-69
2023/05/08 10:06:13;;;;;;;1.50;0.40;;;;;;;24.11;29.36;101018.84;5534352;32;34197;-69
2023/05/08 10:09:15;;;;;;;2.78;0.40;;;;;;;25.54;28.54;101012.06;5531238;32;34289;-70
2023/05/08 10:12:20;;;;;;;2.22;0.40;;;;;;;25.46;27.86;101015.25;5540402;32;33889;-68
2023/05/08 10:15:25;;;;;;;1.90;0.50;;;;;;;24.39;29.16;101011.81;5539594;32;33791;-68
2023/05/08 10:18:34;;;;;;;1.70;0.57;;;;;;;24.71;28.75;101002.09;5539184;32;33960;-69
2023/05/08 10:21:39;;;;;;;0.95;0.40;;;;;;;24.46;29.46;101005.16;5538400;32;34802;-69
2023/05/08 10:24:43;;;;;;;1.60;1.08;;;;;;;25.48;27.20;100997.59;5547283;32;34285;-69
2023/05/08 10:27:58;;;;;;;0.80;0.40;;;;;;;25.39;28.32;100996.37;5548056;32;33750;-69
2023/05/08 10:31:04;;;;;;;0.85;0.60;;;;;;;25.24;28.44;100982.59;5546968;32;33898;-68
2023/05/08 10:34:12;;;;;;;0.70;0.40;;;;;;;25.63;27.05;100958.16;5548114;32;33894;-68
2023/05/08 10:37:15;;;;;;;2.78;0.35;;;;;;;28.89;24.37;100975.19;5532935;32;33613;-68
2023/05/08 10:40:20;;;;;;;1.60;0.43;;;;;;;26.14;25.88;100982.09;5548284;32;33918;-68
2023/05/08 10:43:28;;;;;;;13.15;0.85;;;;;;;24.94;27.29;100974.81;5533622;32;33819;-67
2023/05/08 10:46:58;;;;;;;1.42;0.40;;;;;;;25.65;26.01;100988.63;5535620;32;33808;-69
2023/05/08 10:50:10;;;;;;;1.08;0.50;;;;;;;26.44;25.16;100980.81;5547071;32;34241;-68
2023/05/08 10:53:23;;;;;;;1.23;0.62;;;;;;;28.99;24.66;100972.44;5530823;32;34616;-69
2023/05/08 10:56:28;;;;;;;0.43;0.30;;;;;;;26.25;25.69;100972.19;5539012;32;34826;-68
2023/05/08 10:59:35;;;;;;;1.40;0.40;;;;;;;28.19;23.08;100963.09;5549877;32;34222;-67
2023/05/08 11:02:38;;;;;;;25.65;0.93;;;;;;;29.51;21.65;100963.03;5540360;32;34035;-69
2023/05/08 11:05:48;;;;;;;12.37;1.08;;;;;;;25.64;25.97;100965.22;5529886;32;33718;-67
2023/05/08 11:08:54;;;;;;;8.40;0.50;;;;;;;23.90;27.96;100956.38;5528433;32;33656;-69
2023/05/08 11:12:24;;;;;;;0.62;0.40;;;;;;;23.40;28.92;100956.94;5528315;32;33841;-69
2023/05/08 11:15:39;;;;;;;2.45;0.30;;;;;;;28.44;24.16;100956.84;5521800;32;34453;-68
2023/05/08 11:19:16;;;;;;;0.50;0.40;;;;;;;28.77;23.51;100952.78;5541747;32;33945;-70
2023/05/08 11:22:24;;;;;;;1.00;0.40;;;;;;;32.18;19.76;100951.63;5547127;32;34113;-69
2023/05/08 11:25:42;;;;;;;35.15;1.70;;;;;;;28.99;23.12;100956.03;5540961;32;33900;-67
2023/05/08 11:28:56;;;;;;;2.67;0.57;;;;;;;29.20;22.66;100956.81;5538230;32;34525;-68
2023/05/08 11:31:58;;;;;;;0.88;0.37;;;;;;;30.19;22.06;100955.87;5537468;32;34515;-68
2023/05/08 11:35:02;;;;;;;1.20;0.32;;;;;;;28.16;23.00;100938.25;5546696;32;33765;-69
2023/05/08 11:38:15;;;;;;;54.55;2.30;;;;;;;28.31;23.07;100947.31;5547568;32;33610;-69
2023/05/08 11:41:23;;;;;;;3.37;0.70;;;;;;;28.96;22.41;100948.38;5546863;32;33885;-69
2023/05/08 11:44:27;;;;;;;1.90;0.50;;;;;;;31.32;21.96;100951.91;5546931;32;33686;-68
2023/05/08 11:47:36;;;;;;;1.98;0.40;;;;;;;27.25;24.13;100955.84;5547522;32;34430;-69
2023/05/08 11:50:40;;;;;;;1.60;0.50;;;;;;;27.80;23.90;100942.78;5547405;32;35083;-70
2023/05/08 11:53:43;;;;;;;1.90;0.50;;;;;;;27.78;24.45;100945.78;5547694;32;33600;-69
2023/05/08 11:56:47;;;;;;;3.00;0.40;;;;;;;25.56;27.20;100939.34;5547315;32;33796;-68
2023/05/08 11:59:50;;;;;;;1.52;0.40;;;;;;;28.92;25.27;100939.94;5546602;32;33986;-68
2023/05/08 12:02:53;;;;;;;4.30;0.90;;;;;;;29.37;22.33;100941.78;5547243;32;34043;-70
2023/05/08 12:05:58;;;;;;;3.83;0.80;;;;;;;33.05;19.00;100942.75;5537235;32;34522;-69
2023/05/08 12:09:04;;;;;;;5.07;0.60;;;;;;;27.75;24.11;100943.59;5535299;32;33828;-68
2023/05/08 12:12:07;;;;;;;4.15;0.50;;;;;;;27.38;23.80;100934.69;5533758;32;33362;-68
2023/05/08 12:15:11;;;;;;;2.45;0.50;;;;;;;29.97;21.76;100930.81;5535366;32;34288;-68
2023/05/08 12:18:15;;;;;;;4.53;0.60;;;;;;;30.62;21.09;100935.03;5536518;32;33683;-69
2023/05/08 12:21:20;;;;;;;9.98;0.70;;;;;;;30.23;21.12;100938.59;5535110;32;33904;-69
2023/05/08 12:24:24;;;;;;;0.75;0.45;;;;;;;31.49;19.87;100941.25;5531013;32;33833;-68
2023/05/08 12:27:28;;;;;;;3.55;0.45;;;;;;;31.29;20.01;100939.56;5527718;32;34155;-69
2023/05/08 12:30:31;;;;;;;0.77;0.30;;;;;;;31.65;20.15;100937.25;5527956;32;34788;-69
2023/05/08 12:33:33;;;;;;;2.50;0.60;;;;;;;30.97;20.28;100942.91;5527296;32;34692;-69
2023/05/08 12:36:37;;;;;;;3.90;0.50;;;;;;;30.25;21.03;100930.12;5527545;32;33805;-69
2023/05/08 12:39:43;;;;;;;0.93;0.50;;;;;;;31.93;19.97;100932.75;5527520;32;33772;-68
2023/05/08 12:42:50;;;;;;;0.40;0.40;;;;;;;27.21;23.39;100935.69;5529643;32;33797;-68
2023/05/08 12:45:52;;;;;;;6.35;0.65;;;;;;;30.22;20.45;100930.66;5542745;32;34389;-68
2023/05/08 12:49:03;;;;;;;2.87;0.50;;;;;;;28.28;22.23;100934.19;5533630;32;34200;-67
2023/05/08 12:52:07;;;;;;;3.05;0.60;;;;;;;30.49;19.56;100943.91;5543886;32;34310;-66
2023/05/08 12:55:25;;;;;;;3.05;0.70;;;;;;;28.83;20.95;100951.69;5535705;32;33800;-67
2023/05/08 12:58:30;;;;;;;3.05;0.55;;;;;;;30.36;19.77;100947.25;5533727;32;34091;-69
2023/05/08 13:01:33;;;;;;;2.78;0.70;;;;;;;31.85;19.35;100934.25;5539742;32;34024;-67
2023/05/08 13:04:37;;;;;;;5.18;0.60;;;;;;;31.30;19.10;100943.13;5533666;32;34146;-67
2023/05/08 13:07:40;;;;;;;3.17;0.70;;;;;;;29.00;20.88;100943.22;5549379;32;34094;-69
2023/05/08 13:10:49;;;;;;;1.92;0.73;;;;;;;27.70;22.80;100940.00;5552085;32;33689;-69
2023/05/08 13:13:51;;;;;;;1.02;0.40;;;;;;;30.26;19.43;100942.66;5553013;32;33753;-69
2023/05/08 13:16:54;;;;;;;2.83;0.47;;;;;;;33.54;16.42;100939.31;5552762;32;35085;-69
2023/05/08 13:19:57;;;;;;;7.37;0.88;;;;;;;33.35;16.68;100952.37;5551685;32;34839;-69
2023/05/08 13:23:01;;;;;;;6.47;0.60;;;;;;;28.75;21.05;100931.22;5551903;32;33947;-69
2023/05/08 13:26:04;;;;;;;0.75;0.40;;;;;;;29.01;20.43;100945.66;5551426;32;33606;-69
2023/05/08 13:29:07;;;;;;;1.05;0.50;;;;;;;29.65;19.70;100940.28;5534432;32;33634;-68
2023/05/08 13:32:09;;;;;;;3.35;0.60;;;;;;;29.08;18.79;100939.91;5545198;32;32468;-69
2023/05/08 13:35:12;;;;;;;4.00;0.57;;;;;;;30.49;17.24;100936.53;5538341;32;34905;-69
2023/05/08 13:38:15;;;;;;;5.70;0.70;;;;;;;32.18;16.59;100950.81;5551005;32;33931;-69
2023/05/08 13:41:18;;;;;;;6.07;0.98;;;;;;;27.70;19.88;100948.19;5536489;32;33886;-67
2023/05/08 13:44:21;;;;;;;8.60;1.20;;;;;;;27.67;21.23;100934.03;5541474;32;33923;-69
2023/05/08 13:47:24;;;;;;;3.05;0.60;;;;;;;30.59;18.86;100950.13;5548429;32;34508;-68
2023/05/08 13:50:27;;;;;;;2.35;0.60;;;;;;;31.04;17.79;100948.06;5543820;32;36713;-69
2023/05/08 13:53:29;;;;;;;3.47;0.50;;;;;;;31.72;17.08;100939.63;5550981;32;33705;-69
2023/05/08 13:56:32;;;;;;;3.08;0.50;;;;;;;33.01;15.53;100953.53;5549424;32;33808;-69
2023/05/08 13:59:38;;;;;;;2.00;0.60;;;;;;;29.04;16.85;100936.09;5538281;32;33800;-68
2023/05/08 14:02:40;;;;;;;4.80;0.80;;;;;;;29.97;16.98;100941.75;5528687;32;33658;-68
2023/05/08 14:05:44;;;;;;;6.45;0.85;;;;;;;30.63;17.12;100951.19;5539965;32;33801;-68
2023/05/08 14:08:46;;;;;;;3.15;0.90;;;;;;;28.95;18.30;100941.28;5546258;32;34886;-69
2023/05/08 14:11:53;;;;;;;12.68;1.08;;;;;;;26.35;20.34;100934.22;5543765;32;34126;-67
2023/05/08 14:14:55;;;;;;;2.62;0.70;;;;;;;26.79;19.99;100934.84;5546893;32;34141;-66
2023/05/08 14:17:58;;;;;;;5.68;0.70;;;;;;;27.62;19.45;100933.19;5547332;32;32420;-70
2023/05/08 14:21:01;;;;;;;10.18;0.90;;;;;;;28.05;19.45;100935.50;5534398;32;34528;-68
2023/05/08 14:24:05;;;;;;;5.00;0.70;;;;;;;24.54;22.15;100931.56;5541350;32;34413;-69
2023/05/08 14:27:07;;;;;;;4.37;1.20;;;;;;;22.70;24.48;100935.31;5528198;32;33981;-68